sensor_id;sensor_type;location;lat;lon;timestamp;P1;P2;P0
74078;PMS5003;62437;51.544;-3.276;2022-07-22T13:46:01;5;5;
74078;PMS5003;62437;51.544;-3.276;2022-07-22T13:48:27;7;6;
74078;PMS5003;62437;51.544;-3.276;2022-07-22T13:56:11;6;6;
74078;PMS5003;62437;51.544;-3.276;2022-07-22T14:10:11;4;4;
74078;PMS5003;62437;51.544;-3.276;2022-07-22T14:12:37;10;10;
74078;PMS5003;62437;51.544;-3.276;2022-07-22T14:15:02;9;8;
74078;PMS5003;62437;51.544;-3.276;2022-07-22T14:17:28;8;8;
74078;PMS5003;62437;51.544;-3.276;2022-07-22T14:19:53;10;10;
74078;PMS5003;62437;51.544;-3.276;2022-07-22T14:22:19;7;7;
74078;PMS5003;62437;51.544;-3.276;2022-07-22T14:24:45;9;8;
74078;PMS5003;62437;51.544;-3.276;2022-07-22T14:27:10;8;7;
74078;PMS5003;62437;51.544;-3.276;2022-07-22T14:29:36;9;9;
74078;PMS5003;62437;51.544;-3.276;2022-07-22T14:32:02;9;9;
74078;PMS5003;62437;51.544;-3.276;2022-07-22T14:34:27;9;9;
74078;PMS5003;62437;51.544;-3.276;2022-07-22T14:36:53;9;9;
74078;PMS5003;62437;51.544;-3.276;2022-07-22T14:39:18;8;8;
74078;PMS5003;62437;51.544;-3.276;2022-07-22T14:41:44;9;9;
74078;PMS5003;62437;51.544;-3.276;2022-07-22T14:44:10;10;10;
74078;PMS5003;62437;51.544;-3.276;2022-07-22T14:46:35;7;7;
74078;PMS5003;62437;51.544;-3.276;2022-07-22T14:49:01;9;9;
74078;PMS5003;62437;51.544;-3.276;2022-07-22T14:51:27;9;8;
74078;PMS5003;62437;51.544;-3.276;2022-07-22T14:53:52;9;8;
74078;PMS5003;62437;51.544;-3.276;2022-07-22T14:56:18;9;7;
74078;PMS5003;62437;51.544;-3.276;2022-07-22T14:58:43;8;7;
74078;PMS5003;62437;51.544;-3.276;2022-07-22T15:01:09;9;9;
74078;PMS5003;62437;51.544;-3.276;2022-07-22T15:03:35;9;8;
74078;PMS5003;62437;51.544;-3.276;2022-07-22T15:06:00;8;8;
74078;PMS5003;62437;51.544;-3.276;2022-07-22T15:08:26;9;8;
74078;PMS5003;62437;51.544;-3.276;2022-07-22T15:10:52;10;10;
74078;PMS5003;62437;51.544;-3.276;2022-07-22T15:13:17;8;8;
74078;PMS5003;62437;51.544;-3.276;2022-07-22T15:15:43;10;9;
74078;PMS5003;62437;51.544;-3.276;2022-07-22T15:18:09;9;8;
74078;PMS5003;62437;51.544;-3.276;2022-07-22T15:20:34;9;9;
74078;PMS5003;62437;51.544;-3.276;2022-07-22T15:23:00;9;9;
74078;PMS5003;62437;51.544;-3.276;2022-07-22T15:25:25;9;9;
74078;PMS5003;62437;51.544;-3.276;2022-07-22T15:27:51;7;7;
74078;PMS5003;62437;51.544;-3.276;2022-07-22T15:30:17;9;9;
74078;PMS5003;62437;51.544;-3.276;2022-07-22T15:32:42;8;8;
74078;PMS5003;62437;51.544;-3.276;2022-07-22T15:35:08;10;8;
74078;PMS5003;62437;51.544;-3.276;2022-07-22T15:37:34;10;9;
74078;PMS5003;62437;51.544;-3.276;2022-07-22T15:39:59;8;8;
74078;PMS5003;62437;51.544;-3.276;2022-07-22T15:42:25;7;7;
74078;PMS5003;62437;51.544;-3.276;2022-07-22T15:44:51;7;6;
74078;PMS5003;62437;51.544;-3.276;2022-07-22T15:47:16;7;7;
74078;PMS5003;62437;51.544;-3.276;2022-07-22T15:49:42;6;6;
74078;PMS5003;62437;51.544;-3.276;2022-07-22T15:52:08;7;7;
74078;PMS5003;62437;51.544;-3.276;2022-07-22T15:54:33;8;7;
74078;PMS5003;62437;51.544;-3.276;2022-07-22T15:56:59;8;7;
74078;PMS5003;62437;51.544;-3.276;2022-07-22T15:59:25;9;8;
74078;PMS5003;62437;51.544;-3.276;2022-07-22T16:01:50;6;6;
74078;PMS5003;62437;51.544;-3.276;2022-07-22T16:04:16;9;8;
74078;PMS5003;62437;51.544;-3.276;2022-07-22T16:06:42;9;8;
74078;PMS5003;62437;51.544;-3.276;2022-07-22T16:09:07;7;6;
74078;PMS5003;62437;51.544;-3.276;2022-07-22T16:11:33;7;7;
74078;PMS5003;62437;51.544;-3.276;2022-07-22T16:13:58;7;7;
74078;PMS5003;62437;51.544;-3.276;2022-07-22T16:16:24;6;6;
74078;PMS5003;62437;51.544;-3.276;2022-07-22T16:18:49;6;4;
74078;PMS5003;62437;51.544;-3.276;2022-07-22T16:21:15;5;5;
74078;PMS5003;62437;51.544;-3.276;2022-07-22T16:23:40;6;6;
74078;PMS5003;62437;51.544;-3.276;2022-07-22T16:26:05;6;6;
74078;PMS5003;62437;51.544;-3.276;2022-07-22T16:28:31;6;5;
74078;PMS5003;62437;51.544;-3.276;2022-07-22T16:30:56;10;10;
74078;PMS5003;62437;51.544;-3.276;2022-07-22T16:33:22;9;8;
74078;PMS5003;62437;51.544;-3.276;2022-07-22T16:35:48;9;8;
74078;PMS5003;62437;51.544;-3.276;2022-07-22T16:38:13;8;8;
74078;PMS5003;62437;51.544;-3.276;2022-07-22T16:40:39;9;9;
74078;PMS5003;62437;51.544;-3.276;2022-07-22T16:43:04;6;6;
74078;PMS5003;62437;51.544;-3.276;2022-07-22T16:45:30;6;6;
74078;PMS5003;62437;51.544;-3.276;2022-07-22T16:47:56;6;5;
74078;PMS5003;62437;51.544;-3.276;2022-07-22T16:50:21;7;6;
74078;PMS5003;62437;51.544;-3.276;2022-07-22T16:52:47;6;6;
74078;PMS5003;62437;51.544;-3.276;2022-07-22T16:55:12;7;7;
74078;PMS5003;62437;51.544;-3.276;2022-07-22T16:57:38;6;5;
74078;PMS5003;62437;51.544;-3.276;2022-07-22T17:00:04;7;6;
74078;PMS5003;62437;51.544;-3.276;2022-07-22T17:02:29;6;5;
74078;PMS5003;62437;51.544;-3.276;2022-07-22T17:04:54;5;5;
74078;PMS5003;62437;51.544;-3.276;2022-07-22T17:07:20;7;7;
74078;PMS5003;62437;51.544;-3.276;2022-07-22T17:09:45;7;7;
74078;PMS5003;62437;51.544;-3.276;2022-07-22T17:12:11;7;7;
74078;PMS5003;62437;51.544;-3.276;2022-07-22T17:14:37;6;6;
74078;PMS5003;62437;51.544;-3.276;2022-07-22T17:17:02;6;6;
74078;PMS5003;62437;51.544;-3.276;2022-07-22T17:19:28;9;7;
74078;PMS5003;62437;51.544;-3.276;2022-07-22T17:21:54;8;8;
74078;PMS5003;62437;51.544;-3.276;2022-07-22T17:24:19;6;6;
74078;PMS5003;62437;51.544;-3.276;2022-07-22T17:26:45;8;8;
74078;PMS5003;62437;51.544;-3.276;2022-07-22T17:29:10;9;9;
74078;PMS5003;62437;51.544;-3.276;2022-07-22T17:31:36;8;8;
74078;PMS5003;62437;51.544;-3.276;2022-07-22T17:34:02;6;5;
74078;PMS5003;62437;51.544;-3.276;2022-07-22T17:36:27;8;8;
74078;PMS5003;62437;51.544;-3.276;2022-07-22T17:38:53;8;7;
74078;PMS5003;62437;51.544;-3.276;2022-07-22T17:41:19;7;7;
74078;PMS5003;62437;51.544;-3.276;2022-07-22T17:43:45;7;7;
74078;PMS5003;62437;51.544;-3.276;2022-07-22T17:46:10;7;7;
74078;PMS5003;62437;51.544;-3.276;2022-07-22T17:48:36;6;6;
74078;PMS5003;62437;51.544;-3.276;2022-07-22T17:51:01;6;6;
74078;PMS5003;62437;51.544;-3.276;2022-07-22T17:53:27;9;9;
74078;PMS5003;62437;51.544;-3.276;2022-07-22T17:55:52;6;6;
74078;PMS5003;62437;51.544;-3.276;2022-07-22T17:58:18;9;8;
74078;PMS5003;62437;51.544;-3.276;2022-07-22T18:00:44;9;8;
74078;PMS5003;62437;51.544;-3.276;2022-07-22T18:03:09;7;6;
74078;PMS5003;62437;51.544;-3.276;2022-07-22T18:05:35;9;8;
74078;PMS5003;62437;51.544;-3.276;2022-07-22T18:08:00;8;8;
74078;PMS5003;62437;51.544;-3.276;2022-07-22T18:10:26;7;6;
74078;PMS5003;62437;51.544;-3.276;2022-07-22T18:12:51;12;12;
74078;PMS5003;62437;51.544;-3.276;2022-07-22T18:15:17;6;5;
74078;PMS5003;62437;51.544;-3.276;2022-07-22T18:17:43;8;7;
74078;PMS5003;62437;51.544;-3.276;2022-07-22T18:20:10;9;9;
74078;PMS5003;62437;51.544;-3.276;2022-07-22T18:22:33;5;5;
74078;PMS5003;62437;51.544;-3.276;2022-07-22T18:24:59;5;5;
74078;PMS5003;62437;51.544;-3.276;2022-07-22T18:27:25;7;6;
74078;PMS5003;62437;51.544;-3.276;2022-07-22T18:29:50;7;6;
74078;PMS5003;62437;51.544;-3.276;2022-07-22T18:32:16;5;5;
74078;PMS5003;62437;51.544;-3.276;2022-07-22T18:34:42;8;7;
74078;PMS5003;62437;51.544;-3.276;2022-07-22T18:37:07;9;8;
74078;PMS5003;62437;51.544;-3.276;2022-07-22T18:39:33;7;6;
74078;PMS5003;62437;51.544;-3.276;2022-07-22T18:41:58;6;5;
74078;PMS5003;62437;51.544;-3.276;2022-07-22T18:44:24;8;8;
74078;PMS5003;62437;51.544;-3.276;2022-07-22T18:46:50;8;7;
74078;PMS5003;62437;51.544;-3.276;2022-07-22T18:49:15;7;6;
74078;PMS5003;62437;51.544;-3.276;2022-07-22T18:51:41;5;5;
74078;PMS5003;62437;51.544;-3.276;2022-07-22T18:54:07;7;6;
74078;PMS5003;62437;51.544;-3.276;2022-07-22T18:56:32;5;5;
74078;PMS5003;62437;51.544;-3.276;2022-07-22T18:58:58;6;5;
74078;PMS5003;62437;51.544;-3.276;2022-07-22T19:01:23;6;6;
74078;PMS5003;62437;51.544;-3.276;2022-07-22T19:03:49;8;6;
74078;PMS5003;62437;51.544;-3.276;2022-07-22T19:06:15;7;7;
74078;PMS5003;62437;51.544;-3.276;2022-07-22T19:08:40;6;6;
74078;PMS5003;62437;51.544;-3.276;2022-07-22T19:11:06;7;6;
74078;PMS5003;62437;51.544;-3.276;2022-07-22T19:13:32;7;6;
74078;PMS5003;62437;51.544;-3.276;2022-07-22T19:15:58;7;6;
74078;PMS5003;62437;51.544;-3.276;2022-07-22T19:18:23;6;6;
74078;PMS5003;62437;51.544;-3.276;2022-07-22T19:20:49;11;8;
74078;PMS5003;62437;51.544;-3.276;2022-07-22T19:23:15;6;6;
74078;PMS5003;62437;51.544;-3.276;2022-07-22T19:25:40;10;9;
74078;PMS5003;62437;51.544;-3.276;2022-07-22T19:28:06;8;7;
74078;PMS5003;62437;51.544;-3.276;2022-07-22T19:30:31;7;6;
74078;PMS5003;62437;51.544;-3.276;2022-07-22T19:32:57;7;6;
74078;PMS5003;62437;51.544;-3.276;2022-07-22T19:35:23;8;7;
74078;PMS5003;62437;51.544;-3.276;2022-07-22T19:37:48;10;10;
74078;PMS5003;62437;51.544;-3.276;2022-07-22T19:40:14;6;6;
74078;PMS5003;62437;51.544;-3.276;2022-07-22T19:42:40;6;5;
74078;PMS5003;62437;51.544;-3.276;2022-07-22T19:45:05;6;6;
74078;PMS5003;62437;51.544;-3.276;2022-07-22T19:47:31;5;5;
74078;PMS5003;62437;51.544;-3.276;2022-07-22T19:49:57;8;6;
74078;PMS5003;62437;51.544;-3.276;2022-07-22T19:52:22;5;5;
74078;PMS5003;62437;51.544;-3.276;2022-07-22T19:54:48;7;6;
74078;PMS5003;62437;51.544;-3.276;2022-07-22T19:57:14;6;6;
74078;PMS5003;62437;51.544;-3.276;2022-07-22T19:59:39;7;6;
74078;PMS5003;62437;51.544;-3.276;2022-07-22T20:02:05;7;6;
74078;PMS5003;62437;51.544;-3.276;2022-07-22T20:04:31;7;7;
74078;PMS5003;62437;51.544;-3.276;2022-07-22T20:06:56;8;8;
74078;PMS5003;62437;51.544;-3.276;2022-07-22T20:09:22;8;8;
74078;PMS5003;62437;51.544;-3.276;2022-07-22T20:11:47;6;6;
74078;PMS5003;62437;51.544;-3.276;2022-07-22T20:14:13;6;6;
74078;PMS5003;62437;51.544;-3.276;2022-07-22T20:16:39;7;7;
74078;PMS5003;62437;51.544;-3.276;2022-07-22T20:19:05;9;7;
74078;PMS5003;62437;51.544;-3.276;2022-07-22T20:21:30;8;7;
74078;PMS5003;62437;51.544;-3.276;2022-07-22T20:23:56;5;5;
74078;PMS5003;62437;51.544;-3.276;2022-07-22T20:26:22;6;6;
74078;PMS5003;62437;51.544;-3.276;2022-07-22T20:28:47;6;6;
74078;PMS5003;62437;51.544;-3.276;2022-07-22T20:31:13;6;6;
74078;PMS5003;62437;51.544;-3.276;2022-07-22T20:33:38;6;6;
74078;PMS5003;62437;51.544;-3.276;2022-07-22T20:36:05;8;8;
74078;PMS5003;62437;51.544;-3.276;2022-07-22T20:38:30;6;6;
74078;PMS5003;62437;51.544;-3.276;2022-07-22T20:40:55;6;6;
74078;PMS5003;62437;51.544;-3.276;2022-07-22T20:43:21;8;7;
74078;PMS5003;62437;51.544;-3.276;2022-07-22T20:45:46;7;7;
74078;PMS5003;62437;51.544;-3.276;2022-07-22T20:48:12;9;9;
74078;PMS5003;62437;51.544;-3.276;2022-07-22T20:50:38;8;7;
74078;PMS5003;62437;51.544;-3.276;2022-07-22T20:53:03;9;9;
74078;PMS5003;62437;51.544;-3.276;2022-07-22T20:55:29;13;10;
74078;PMS5003;62437;51.544;-3.276;2022-07-22T20:57:54;10;9;
74078;PMS5003;62437;51.544;-3.276;2022-07-22T21:00:20;10;9;
74078;PMS5003;62437;51.544;-3.276;2022-07-22T21:02:46;8;8;
74078;PMS5003;62437;51.544;-3.276;2022-07-22T21:05:11;8;8;
74078;PMS5003;62437;51.544;-3.276;2022-07-22T21:07:37;9;9;
74078;PMS5003;62437;51.544;-3.276;2022-07-22T21:10:02;10;10;
74078;PMS5003;62437;51.544;-3.276;2022-07-22T21:12:28;9;8;
74078;PMS5003;62437;51.544;-3.276;2022-07-22T21:14:54;9;9;
74078;PMS5003;62437;51.544;-3.276;2022-07-22T21:17:19;11;10;
74078;PMS5003;62437;51.544;-3.276;2022-07-22T21:19:45;8;8;
74078;PMS5003;62437;51.544;-3.276;2022-07-22T21:22:11;8;6;
74078;PMS5003;62437;51.544;-3.276;2022-07-22T21:24:36;7;7;
74078;PMS5003;62437;51.544;-3.276;2022-07-22T21:27:02;10;10;
74078;PMS5003;62437;51.544;-3.276;2022-07-22T21:29:28;9;9;
74078;PMS5003;62437;51.544;-3.276;2022-07-22T21:31:53;8;8;
74078;PMS5003;62437;51.544;-3.276;2022-07-22T21:34:19;11;10;
74078;PMS5003;62437;51.544;-3.276;2022-07-22T21:36:45;7;7;
74078;PMS5003;62437;51.544;-3.276;2022-07-22T21:39:11;11;11;
74078;PMS5003;62437;51.544;-3.276;2022-07-22T21:41:36;12;12;
74078;PMS5003;62437;51.544;-3.276;2022-07-22T21:44:02;11;10;
74078;PMS5003;62437;51.544;-3.276;2022-07-22T21:46:27;9;9;
74078;PMS5003;62437;51.544;-3.276;2022-07-22T21:48:53;9;9;
74078;PMS5003;62437;51.544;-3.276;2022-07-22T21:51:19;9;8;
74078;PMS5003;62437;51.544;-3.276;2022-07-22T21:53:45;9;9;
74078;PMS5003;62437;51.544;-3.276;2022-07-22T21:56:10;9;9;
74078;PMS5003;62437;51.544;-3.276;2022-07-22T21:58:36;11;10;
74078;PMS5003;62437;51.544;-3.276;2022-07-22T22:01:02;10;9;
74078;PMS5003;62437;51.544;-3.276;2022-07-22T22:03:27;11;11;
74078;PMS5003;62437;51.544;-3.276;2022-07-22T22:05:53;12;11;
74078;PMS5003;62437;51.544;-3.276;2022-07-22T22:08:18;7;7;
74078;PMS5003;62437;51.544;-3.276;2022-07-22T22:10:44;9;9;
74078;PMS5003;62437;51.544;-3.276;2022-07-22T22:13:10;9;9;
74078;PMS5003;62437;51.544;-3.276;2022-07-22T22:15:35;12;11;
74078;PMS5003;62437;51.544;-3.276;2022-07-22T22:18:01;8;8;
74078;PMS5003;62437;51.544;-3.276;2022-07-22T22:20:27;9;9;
74078;PMS5003;62437;51.544;-3.276;2022-07-22T22:22:52;12;11;
74078;PMS5003;62437;51.544;-3.276;2022-07-22T22:25:18;11;10;
74078;PMS5003;62437;51.544;-3.276;2022-07-22T22:27:44;11;11;
74078;PMS5003;62437;51.544;-3.276;2022-07-22T22:30:09;12;12;
74078;PMS5003;62437;51.544;-3.276;2022-07-22T22:32:35;14;13;
74078;PMS5003;62437;51.544;-3.276;2022-07-22T22:35:00;11;11;
74078;PMS5003;62437;51.544;-3.276;2022-07-22T22:37:25;14;14;
74078;PMS5003;62437;51.544;-3.276;2022-07-22T22:39:51;13;13;
74078;PMS5003;62437;51.544;-3.276;2022-07-22T22:42:17;12;12;
74078;PMS5003;62437;51.544;-3.276;2022-07-22T22:44:42;12;11;
74078;PMS5003;62437;51.544;-3.276;2022-07-22T22:47:07;12;11;
74078;PMS5003;62437;51.544;-3.276;2022-07-22T22:49:33;15;14;
74078;PMS5003;62437;51.544;-3.276;2022-07-22T22:51:59;14;13;
74078;PMS5003;62437;51.544;-3.276;2022-07-22T22:54:25;13;13;
74078;PMS5003;62437;51.544;-3.276;2022-07-22T22:56:50;13;13;
74078;PMS5003;62437;51.544;-3.276;2022-07-22T22:59:15;13;13;
74078;PMS5003;62437;51.544;-3.276;2022-07-22T23:01:41;16;14;
74078;PMS5003;62437;51.544;-3.276;2022-07-22T23:04:07;13;12;
74078;PMS5003;62437;51.544;-3.276;2022-07-22T23:06:32;11;11;
74078;PMS5003;62437;51.544;-3.276;2022-07-22T23:08:58;13;13;
74078;PMS5003;62437;51.544;-3.276;2022-07-22T23:11:23;13;13;
74078;PMS5003;62437;51.544;-3.276;2022-07-22T23:13:49;13;13;
74078;PMS5003;62437;51.544;-3.276;2022-07-22T23:16:14;13;12;
74078;PMS5003;62437;51.544;-3.276;2022-07-22T23:18:40;10;10;
74078;PMS5003;62437;51.544;-3.276;2022-07-22T23:21:05;12;12;
74078;PMS5003;62437;51.544;-3.276;2022-07-22T23:23:31;12;11;
74078;PMS5003;62437;51.544;-3.276;2022-07-22T23:25:56;11;10;
74078;PMS5003;62437;51.544;-3.276;2022-07-22T23:28:22;12;12;
74078;PMS5003;62437;51.544;-3.276;2022-07-22T23:30:48;11;11;
74078;PMS5003;62437;51.544;-3.276;2022-07-22T23:33:13;14;12;
74078;PMS5003;62437;51.544;-3.276;2022-07-22T23:35:39;11;10;
74078;PMS5003;62437;51.544;-3.276;2022-07-22T23:38:05;12;11;
74078;PMS5003;62437;51.544;-3.276;2022-07-22T23:40:31;11;11;
74078;PMS5003;62437;51.544;-3.276;2022-07-22T23:42:56;11;11;
74078;PMS5003;62437;51.544;-3.276;2022-07-22T23:45:22;12;12;
74078;PMS5003;62437;51.544;-3.276;2022-07-22T23:47:47;14;13;
74078;PMS5003;62437;51.544;-3.276;2022-07-22T23:50:13;10;10;
74078;PMS5003;62437;51.544;-3.276;2022-07-22T23:52:39;15;13;
74078;PMS5003;62437;51.544;-3.276;2022-07-22T23:55:04;14;12;
74078;PMS5003;62437;51.544;-3.276;2022-07-22T23:57:30;13;12;
74078;PMS5003;62437;51.544;-3.276;2022-07-22T23:59:55;15;14;
